createdAt,value
2018-09-16T00:00:28.468Z,8.70
2018-09-16T00:02:56.970Z,8.80
2018-09-16T00:05:25.584Z,8.80
2018-09-16T00:07:54.092Z,8.80
2018-09-16T00:10:22.630Z,8.80
2018-09-16T00:12:51.202Z,8.70
2018-09-16T00:15:19.764Z,8.50
2018-09-16T00:17:48.286Z,8.50
2018-09-16T00:20:16.889Z,8.30
2018-09-16T00:22:45.426Z,8.20
2018-09-16T00:25:13.967Z,8.20
2018-09-16T00:27:42.474Z,7.90
2018-09-16T00:30:11.047Z,7.90
2018-09-16T00:32:44.101Z,7.90
2018-09-16T00:35:13.475Z,8.00
2018-09-16T00:37:41.990Z,7.90
2018-09-16T00:40:10.644Z,8.00
2018-09-16T00:42:39.234Z,8.00
2018-09-16T00:45:08.673Z,8.10
2018-09-16T00:47:38.599Z,8.10
2018-09-16T00:50:07.774Z,8.10
2018-09-16T00:52:36.564Z,8.10
2018-09-16T00:55:05.230Z,8.10
2018-09-16T00:57:33.731Z,7.90
2018-09-16T01:00:02.345Z,8.00
2018-09-16T01:02:30.846Z,8.10
2018-09-16T01:04:59.360Z,7.90
2018-09-16T01:07:27.868Z,7.90
2018-09-16T01:09:56.403Z,7.90
2018-09-16T01:12:24.954Z,7.90
2018-09-16T01:14:53.455Z,7.90
2018-09-16T01:17:22.048Z,7.80
2018-09-16T01:19:50.639Z,7.80
2018-09-16T01:22:19.171Z,7.70
2018-09-16T01:24:47.725Z,7.70
2018-09-16T01:27:16.232Z,7.80
2018-09-16T01:29:44.766Z,7.60
2018-09-16T01:32:13.310Z,7.70
2018-09-16T01:34:41.847Z,7.40
2018-09-16T01:37:15.552Z,7.40
2018-09-16T01:39:44.014Z,7.50
2018-09-16T01:42:12.547Z,7.20
2018-09-16T01:44:41.103Z,7.30
2018-09-16T01:47:09.728Z,7.30
2018-09-16T01:49:38.243Z,7.20
2018-09-16T01:52:06.976Z,7.10
2018-09-16T01:54:35.486Z,7.30
2018-09-16T01:57:04.002Z,7.30
2018-09-16T01:59:32.565Z,7.30
2018-09-16T02:02:01.116Z,7.30
2018-09-16T02:04:29.880Z,7.40
2018-09-16T02:06:58.422Z,7.50
2018-09-16T02:09:26.947Z,7.30
2018-09-16T02:11:55.691Z,7.40
2018-09-16T02:14:24.275Z,7.30
2018-09-16T02:16:52.775Z,7.30
2018-09-16T02:19:21.324Z,7.10
2018-09-16T02:21:49.867Z,7.10
2018-09-16T02:24:18.552Z,6.90
2018-09-16T02:26:47.149Z,6.90
2018-09-16T02:29:15.651Z,6.90
2018-09-16T02:31:44.177Z,7.10
2018-09-16T02:34:12.719Z,7.10
2018-09-16T02:36:41.225Z,7.00
2018-09-16T02:39:09.845Z,6.90
2018-09-16T02:41:38.420Z,6.90
2018-09-16T02:44:07.297Z,6.80
2018-09-16T02:46:35.884Z,6.90
2018-09-16T02:49:13.058Z,6.90
2018-09-16T02:51:41.602Z,6.90
2018-09-16T02:54:10.202Z,7.10
2018-09-16T02:56:38.745Z,7.00
2018-09-16T02:59:07.461Z,6.90
2018-09-16T03:01:36.051Z,6.90
2018-09-16T03:04:04.631Z,7.00
2018-09-16T03:06:33.912Z,6.90
2018-09-16T03:09:03.461Z,6.90
2018-09-16T03:11:32.028Z,6.80
2018-09-16T03:14:00.637Z,6.90
2018-09-16T03:16:29.233Z,6.90
2018-09-16T03:18:57.870Z,6.80
2018-09-16T03:21:26.376Z,6.60
2018-09-16T03:23:54.942Z,6.60
2018-09-16T03:26:23.475Z,6.70
2018-09-16T03:28:52.066Z,6.70
2018-09-16T03:31:20.732Z,6.60
2018-09-16T03:33:49.312Z,6.30
2018-09-16T03:36:17.846Z,6.30
2018-09-16T03:38:46.431Z,6.50
2018-09-16T03:41:14.998Z,6.50
2018-09-16T03:43:43.547Z,6.40
2018-09-16T03:46:12.116Z,6.40
2018-09-16T03:48:40.675Z,6.50
2018-09-16T03:51:09.230Z,6.60
2018-09-16T03:53:37.763Z,6.50
2018-09-16T03:56:06.418Z,6.30
2018-09-16T03:58:34.979Z,6.30
2018-09-16T04:01:03.587Z,6.30
2018-09-16T04:03:32.184Z,6.30
2018-09-16T04:06:00.730Z,6.20
2018-09-16T04:08:29.275Z,6.00
2018-09-16T04:10:57.814Z,5.90
2018-09-16T04:13:26.346Z,6.00
2018-09-16T04:15:54.900Z,5.90
2018-09-16T04:18:23.439Z,5.90
2018-09-16T04:20:51.992Z,5.70
2018-09-16T04:23:20.607Z,5.50
2018-09-16T04:25:49.170Z,5.50
2018-09-16T04:28:17.714Z,5.70
2018-09-16T04:30:46.279Z,5.80
2018-09-16T04:33:14.840Z,5.80
2018-09-16T04:35:43.508Z,6.00
2018-09-16T04:38:12.050Z,6.00
2018-09-16T04:40:40.615Z,5.90
2018-09-16T04:43:09.202Z,6.00
2018-09-16T04:45:37.754Z,5.90
2018-09-16T04:48:06.386Z,5.80
2018-09-16T04:50:35.815Z,5.70
2018-09-16T04:53:04.518Z,5.40
2018-09-16T04:55:33.071Z,5.60
2018-09-16T04:58:01.689Z,5.70
2018-09-16T05:00:30.239Z,5.60
2018-09-16T05:02:58.782Z,5.80
2018-09-16T05:05:34.373Z,5.70
2018-09-16T05:08:04.804Z,5.70
2018-09-16T05:10:34.255Z,5.80
2018-09-16T05:13:02.881Z,5.70
2018-09-16T05:15:31.542Z,5.70
2018-09-16T05:18:00.182Z,5.60
2018-09-16T05:20:29.842Z,5.60
2018-09-16T05:22:58.640Z,5.70
2018-09-16T05:25:27.272Z,5.70
2018-09-16T05:27:55.855Z,5.70
2018-09-16T05:30:24.581Z,5.50
2018-09-16T05:32:53.176Z,5.80
2018-09-16T05:35:21.772Z,5.80
2018-09-16T05:37:50.394Z,6.10
2018-09-16T05:40:18.993Z,6.20
2018-09-16T05:42:47.866Z,6.10
2018-09-16T05:45:16.554Z,6.30
2018-09-16T05:47:45.123Z,6.50
2018-09-16T05:50:13.735Z,6.70
2018-09-16T05:52:42.347Z,6.80
2018-09-16T05:55:10.927Z,6.90
2018-09-16T05:57:39.563Z,7.10
2018-09-16T06:00:08.276Z,7.20
2018-09-16T06:02:36.844Z,7.20
2018-09-16T06:05:05.855Z,7.60
2018-09-16T06:07:34.501Z,8.00
2018-09-16T06:10:03.148Z,8.30
2018-09-16T06:12:31.702Z,8.50
2018-09-16T06:15:00.247Z,8.40
2018-09-16T06:17:28.843Z,9.00
2018-09-16T06:19:57.467Z,9.30
2018-09-16T06:22:26.005Z,9.70
2018-09-16T06:24:54.604Z,9.70
2018-09-16T06:27:23.155Z,9.80
2018-09-16T06:29:51.762Z,10.20
2018-09-16T06:32:20.352Z,10.50
2018-09-16T06:34:49.013Z,10.60
2018-09-16T06:37:17.634Z,10.80
2018-09-16T06:39:46.265Z,11.00
2018-09-16T06:42:14.867Z,11.20
2018-09-16T06:44:43.443Z,11.40
2018-09-16T06:47:12.016Z,11.20
2018-09-16T06:49:40.596Z,11.40
2018-09-16T06:52:09.187Z,11.40
2018-09-16T06:54:37.820Z,11.70
2018-09-16T06:57:06.502Z,12.10
2018-09-16T06:59:35.108Z,12.50
2018-09-16T07:02:03.699Z,12.60
2018-09-16T07:04:32.271Z,12.70
2018-09-16T07:07:00.832Z,13.10
2018-09-16T07:09:29.403Z,13.10
2018-09-16T07:11:57.991Z,13.60
2018-09-16T07:14:26.607Z,13.70
2018-09-16T07:16:55.228Z,13.80
2018-09-16T07:19:23.768Z,14.20
2018-09-16T07:21:52.344Z,14.10
2018-09-16T07:24:20.939Z,14.60
2018-09-16T07:26:49.611Z,15.00
2018-09-16T07:29:18.151Z,15.00
2018-09-16T07:31:46.818Z,14.90
2018-09-16T07:34:15.498Z,15.20
2018-09-16T07:36:44.076Z,15.10
2018-09-16T07:39:12.734Z,15.70
2018-09-16T07:41:41.378Z,15.40
2018-09-16T07:44:09.958Z,15.60
2018-09-16T07:46:38.708Z,15.80
2018-09-16T07:49:07.500Z,15.80
2018-09-16T07:51:36.258Z,14.60
2018-09-16T07:54:04.871Z,14.10
2018-09-16T07:56:33.425Z,14.50
2018-09-16T07:59:02.018Z,14.90
2018-09-16T08:01:30.570Z,16.00
2018-09-16T08:03:59.139Z,16.10
2018-09-16T08:06:27.736Z,15.50
2018-09-16T08:08:56.351Z,15.90
2018-09-16T08:11:24.934Z,16.80
2018-09-16T08:13:53.573Z,16.70
2018-09-16T08:16:22.146Z,16.80
2018-09-16T08:18:50.833Z,17.80
2018-09-16T08:21:19.598Z,17.90
2018-09-16T08:23:48.311Z,18.00
2018-09-16T08:26:16.899Z,17.90
2018-09-16T08:28:45.478Z,17.30
2018-09-16T08:31:14.064Z,18.20
2018-09-16T08:33:42.644Z,18.40
2018-09-16T08:36:11.209Z,18.00
2018-09-16T08:38:39.841Z,17.60
2018-09-16T08:41:08.438Z,18.40
2018-09-16T08:43:37.018Z,18.90
2018-09-16T08:46:05.702Z,18.90
2018-09-16T08:48:34.282Z,18.50
2018-09-16T08:51:02.843Z,19.00
2018-09-16T08:53:31.449Z,19.10
2018-09-16T08:56:00.060Z,18.90
2018-09-16T08:58:28.773Z,20.00
2018-09-16T09:00:57.254Z,19.60
2018-09-16T09:03:25.809Z,20.30
2018-09-16T09:05:54.383Z,19.40
2018-09-16T09:08:22.924Z,19.90
2018-09-16T09:10:52.598Z,20.50
2018-09-16T09:13:24.844Z,20.20
2018-09-16T09:15:53.440Z,20.30
2018-09-16T09:18:21.990Z,20.50
2018-09-16T09:20:50.623Z,20.90
2018-09-16T09:23:19.264Z,21.10
2018-09-16T09:25:47.841Z,19.80
2018-09-16T09:28:16.536Z,20.30
2018-09-16T09:30:45.122Z,20.90
2018-09-16T09:33:13.645Z,21.10
2018-09-16T09:35:42.276Z,21.50
2018-09-16T09:38:10.838Z,21.60
2018-09-16T09:40:39.530Z,21.60
2018-09-16T09:43:08.110Z,22.00
2018-09-16T09:45:36.728Z,22.40
2018-09-16T09:48:05.356Z,22.80
2018-09-16T09:50:33.915Z,22.40
2018-09-16T09:53:02.536Z,22.20
2018-09-16T09:55:31.239Z,22.60
2018-09-16T09:57:59.790Z,21.60
2018-09-16T10:00:33.670Z,21.50
2018-09-16T10:03:02.278Z,22.20
2018-09-16T10:05:30.853Z,22.20
2018-09-16T10:07:59.479Z,22.70
2018-09-16T10:10:28.119Z,23.20
2018-09-16T10:12:56.689Z,22.40
2018-09-16T10:15:25.302Z,22.60
2018-09-16T10:17:53.906Z,22.60
2018-09-16T10:20:22.464Z,22.40
2018-09-16T10:22:51.121Z,21.60
2018-09-16T10:25:19.707Z,21.50
2018-09-16T10:27:48.303Z,21.60
2018-09-16T10:30:16.918Z,21.90
2018-09-16T10:32:45.511Z,22.10
2018-09-16T10:35:14.128Z,22.50
2018-09-16T10:37:42.946Z,23.10
2018-09-16T10:40:12.146Z,23.10
2018-09-16T10:42:40.914Z,22.40
2018-09-16T10:45:09.614Z,22.60
2018-09-16T10:47:38.184Z,22.90
2018-09-16T10:50:06.789Z,22.80
2018-09-16T10:52:35.436Z,22.70
2018-09-16T10:55:04.207Z,22.20
2018-09-16T10:57:32.858Z,22.50
2018-09-16T11:00:01.469Z,22.40
2018-09-16T11:02:30.070Z,23.00
2018-09-16T11:04:58.698Z,23.60
2018-09-16T11:07:27.307Z,23.30
2018-09-16T11:09:55.883Z,23.20
2018-09-16T11:12:24.412Z,22.10
2018-09-16T11:14:52.906Z,21.90
2018-09-16T11:17:21.424Z,22.90
2018-09-16T11:19:49.960Z,24.30
2018-09-16T11:22:18.586Z,24.90
2018-09-16T11:24:47.152Z,25.10
2018-09-16T11:27:15.758Z,24.40
2018-09-16T11:29:44.281Z,25.10
2018-09-16T11:32:12.821Z,25.10
2018-09-16T11:34:41.380Z,25.50
2018-09-16T11:37:10.018Z,25.80
2018-09-16T11:39:38.536Z,25.60
2018-09-16T11:42:07.078Z,25.40
2018-09-16T11:44:35.679Z,25.30
2018-09-16T11:47:04.275Z,25.00
2018-09-16T11:49:32.831Z,25.60
2018-09-16T11:52:01.399Z,25.70
2018-09-16T11:54:29.925Z,25.80
2018-09-16T11:56:58.455Z,25.70
2018-09-16T11:59:27.027Z,25.50
2018-09-16T12:01:55.865Z,24.50
2018-09-16T12:04:24.415Z,24.50
2018-09-16T12:06:52.958Z,23.60
2018-09-16T12:09:21.555Z,24.40
2018-09-16T12:11:50.084Z,23.90
2018-09-16T12:14:18.716Z,24.20
2018-09-16T12:16:47.294Z,24.40
2018-09-16T12:19:15.837Z,25.10
2018-09-16T12:21:44.424Z,24.60
2018-09-16T12:24:13.010Z,25.40
2018-09-16T12:26:41.570Z,25.40
2018-09-16T12:29:10.136Z,24.70
2018-09-16T12:31:38.723Z,24.90
2018-09-16T12:34:07.338Z,25.00
2018-09-16T12:36:35.942Z,25.60
2018-09-16T12:39:06.496Z,25.80
2018-09-16T12:41:35.072Z,25.40
2018-09-16T12:44:03.694Z,25.80
2018-09-16T12:46:32.243Z,25.90
2018-09-16T12:49:00.818Z,25.20
2018-09-16T12:51:29.426Z,25.50
2018-09-16T12:53:58.093Z,25.40
2018-09-16T12:56:26.727Z,25.80
2018-09-16T12:58:55.281Z,25.30
2018-09-16T13:01:23.920Z,25.50
2018-09-16T13:03:52.483Z,25.30
2018-09-16T13:06:21.118Z,25.90
2018-09-16T13:08:49.736Z,26.30
2018-09-16T13:11:18.362Z,26.20
2018-09-16T13:13:46.984Z,25.20
2018-09-16T13:16:15.643Z,25.30
2018-09-16T13:18:44.224Z,25.10
2018-09-16T13:21:12.832Z,25.00
2018-09-16T13:23:41.607Z,25.10
2018-09-16T13:26:10.187Z,25.70
2018-09-16T13:28:39.118Z,25.80
2018-09-16T13:31:07.781Z,25.90
2018-09-16T13:33:36.471Z,25.80
2018-09-16T13:36:05.092Z,24.50
2018-09-16T13:38:33.733Z,24.60
2018-09-16T13:41:02.314Z,25.30
2018-09-16T13:43:30.973Z,24.50
2018-09-16T13:45:59.566Z,25.40
2018-09-16T13:48:28.144Z,25.80
2018-09-16T13:50:56.775Z,25.60
2018-09-16T13:53:25.403Z,26.00
2018-09-16T13:55:54.087Z,26.10
2018-09-16T13:58:22.682Z,26.30
2018-09-16T14:00:51.316Z,26.40
2018-09-16T14:03:19.926Z,26.40
2018-09-16T14:05:48.496Z,26.20
2018-09-16T14:08:19.131Z,26.20
2018-09-16T14:10:48.717Z,26.20
2018-09-16T14:13:18.103Z,25.70
2018-09-16T14:15:46.698Z,25.90
2018-09-16T14:18:15.307Z,25.80
2018-09-16T14:20:43.883Z,25.50
2018-09-16T14:23:12.551Z,25.90
2018-09-16T14:25:41.148Z,25.90
2018-09-16T14:28:09.817Z,24.80
2018-09-16T14:30:38.432Z,25.60
2018-09-16T14:33:07.055Z,25.80
2018-09-16T14:35:35.770Z,25.50
2018-09-16T14:38:04.404Z,25.10
2018-09-16T14:40:32.954Z,25.40
2018-09-16T14:43:01.535Z,25.70
2018-09-16T14:45:30.113Z,25.50
2018-09-16T14:47:58.712Z,25.50
2018-09-16T14:50:27.346Z,25.90
2018-09-16T14:52:56.027Z,25.90
2018-09-16T14:55:24.709Z,25.90
2018-09-16T14:57:53.328Z,25.70
2018-09-16T15:00:21.939Z,25.30
2018-09-16T15:02:50.530Z,25.40
2018-09-16T15:05:19.125Z,24.80
2018-09-16T15:07:47.765Z,24.60
2018-09-16T15:10:16.307Z,24.50
2018-09-16T15:12:44.914Z,24.80
2018-09-16T15:15:13.516Z,24.90
2018-09-16T15:17:42.095Z,24.70
2018-09-16T15:20:10.688Z,24.40
2018-09-16T15:22:39.280Z,24.70
2018-09-16T15:25:07.922Z,24.40
2018-09-16T15:27:36.520Z,24.40
2018-09-16T15:30:05.766Z,24.80
2018-09-16T15:32:34.293Z,24.90
2018-09-16T15:35:02.898Z,24.90
2018-09-16T15:37:31.504Z,25.00
2018-09-16T15:40:00.108Z,24.70
2018-09-16T15:42:28.840Z,25.00
2018-09-16T15:44:57.411Z,25.20
2018-09-16T15:47:26.074Z,24.60
2018-09-16T15:49:54.724Z,24.70
2018-09-16T15:52:23.359Z,24.90
2018-09-16T15:54:52.024Z,25.10
2018-09-16T15:57:20.684Z,24.80
2018-09-16T15:59:49.262Z,24.60
2018-09-16T16:02:17.872Z,24.70
2018-09-16T16:04:46.459Z,25.00
2018-09-16T16:07:16.071Z,24.80
2018-09-16T16:09:44.639Z,24.60
2018-09-16T16:12:13.218Z,24.60
2018-09-16T16:14:41.742Z,24.20
2018-09-16T16:17:10.406Z,24.40
2018-09-16T16:19:39.319Z,24.40
2018-09-16T16:22:07.893Z,24.30
2018-09-16T16:24:36.562Z,24.50
2018-09-16T16:27:05.144Z,24.50
2018-09-16T16:29:33.736Z,24.80
2018-09-16T16:32:02.323Z,24.80
2018-09-16T16:34:30.924Z,24.60
2018-09-16T16:36:59.584Z,24.20
2018-09-16T16:39:28.148Z,24.20
2018-09-16T16:41:56.711Z,24.20
2018-09-16T16:44:25.282Z,24.30
2018-09-16T16:46:53.901Z,24.30
2018-09-16T16:49:22.514Z,24.40
2018-09-16T16:51:51.204Z,24.40
2018-09-16T16:54:19.795Z,24.40
2018-09-16T16:56:48.362Z,24.40
2018-09-16T16:59:16.975Z,23.90
2018-09-16T17:01:45.538Z,23.80
2018-09-16T17:04:14.295Z,23.80
2018-09-16T17:06:42.843Z,23.70
2018-09-16T17:09:11.454Z,22.90
2018-09-16T17:11:40.115Z,23.10
2018-09-16T17:14:08.687Z,23.20
2018-09-16T17:16:37.253Z,23.00
2018-09-16T17:19:05.845Z,22.90
2018-09-16T17:21:34.454Z,22.70
2018-09-16T17:24:02.996Z,22.60
2018-09-16T17:26:31.547Z,22.30
2018-09-16T17:29:00.152Z,22.40
2018-09-16T17:31:28.682Z,22.30
2018-09-16T17:33:57.262Z,22.10
2018-09-16T17:36:25.805Z,22.10
2018-09-16T17:38:54.357Z,21.90
2018-09-16T17:41:22.904Z,21.70
2018-09-16T17:43:51.511Z,21.60
2018-09-16T17:46:20.080Z,21.20
2018-09-16T17:48:48.900Z,20.90
2018-09-16T17:51:17.514Z,20.90
2018-09-16T17:53:46.074Z,20.70
2018-09-16T17:56:14.632Z,20.70
2018-09-16T17:58:43.162Z,20.60
2018-09-16T18:01:11.712Z,20.50
2018-09-16T18:03:40.255Z,20.30
2018-09-16T18:06:08.811Z,20.00
2018-09-16T18:08:42.353Z,19.90
2018-09-16T18:11:11.562Z,19.70
2018-09-16T18:13:40.228Z,19.50
2018-09-16T18:16:08.779Z,19.50
2018-09-16T18:18:37.806Z,19.40
2018-09-16T18:21:06.431Z,19.50
2018-09-16T18:23:35.014Z,18.80
2018-09-16T18:26:03.584Z,18.20
2018-09-16T18:28:32.093Z,18.20
2018-09-16T18:31:00.705Z,18.20
2018-09-16T18:33:29.210Z,18.50
2018-09-16T18:35:57.769Z,18.50
2018-09-16T18:38:26.291Z,18.40
2018-09-16T18:40:54.907Z,17.80
2018-09-16T18:43:23.561Z,17.90
2018-09-16T18:45:52.131Z,17.90
2018-09-16T18:48:20.738Z,17.60
2018-09-16T18:50:49.234Z,17.60
2018-09-16T18:53:17.790Z,17.50
2018-09-16T18:55:46.332Z,17.60
2018-09-16T18:58:14.971Z,17.30
2018-09-16T19:00:43.546Z,17.10
2018-09-16T19:03:12.174Z,16.90
2018-09-16T19:05:40.740Z,16.80
2018-09-16T19:08:09.290Z,16.70
2018-09-16T19:10:37.881Z,16.90
2018-09-16T19:13:06.751Z,17.10
2018-09-16T19:15:35.339Z,16.90
2018-09-16T19:18:03.928Z,16.60
2018-09-16T19:20:32.474Z,16.50
2018-09-16T19:23:01.147Z,16.50
2018-09-16T19:25:29.811Z,16.40
2018-09-16T19:27:58.411Z,16.30
2018-09-16T19:30:26.971Z,16.30
2018-09-16T19:32:55.566Z,16.20
2018-09-16T19:35:24.124Z,16.10
2018-09-16T19:37:52.762Z,15.80
2018-09-16T19:40:21.313Z,15.90
2018-09-16T19:42:50.052Z,16.00
2018-09-16T19:45:18.633Z,15.80
2018-09-16T19:47:47.178Z,15.90
2018-09-16T19:50:15.712Z,15.90
2018-09-16T19:52:44.359Z,15.60
2018-09-16T19:55:12.936Z,15.50
2018-09-16T19:57:41.525Z,15.40
2018-09-16T20:00:10.334Z,15.50
2018-09-16T20:02:38.813Z,15.40
2018-09-16T20:05:07.360Z,15.10
2018-09-16T20:07:35.871Z,14.80
2018-09-16T20:10:04.527Z,14.70
2018-09-16T20:12:33.050Z,14.60
2018-09-16T20:15:01.597Z,14.70
2018-09-16T20:17:30.179Z,14.70
2018-09-16T20:19:58.714Z,14.80
2018-09-16T20:22:27.208Z,14.80
2018-09-16T20:24:55.804Z,14.70
2018-09-16T20:27:24.386Z,14.30
2018-09-16T20:29:52.971Z,14.40
2018-09-16T20:32:21.480Z,14.10
2018-09-16T20:34:50.042Z,14.20
2018-09-16T20:37:18.541Z,14.30
2018-09-16T20:39:47.106Z,14.30
2018-09-16T20:42:15.662Z,14.10
2018-09-16T20:44:44.278Z,14.00
2018-09-16T20:47:12.858Z,14.00
2018-09-16T20:49:43.531Z,13.90
2018-09-16T20:52:12.037Z,13.70
2018-09-16T20:54:40.566Z,13.60
2018-09-16T20:57:09.107Z,13.40
2018-09-16T20:59:37.742Z,13.20
2018-09-16T21:02:06.371Z,13.30
2018-09-16T21:04:35.078Z,13.20
2018-09-16T21:07:03.718Z,13.00
2018-09-16T21:09:32.357Z,12.80
2018-09-16T21:12:01.035Z,12.80
2018-09-16T21:14:29.670Z,12.80
2018-09-16T21:16:58.247Z,13.00
2018-09-16T21:19:26.798Z,13.10
2018-09-16T21:21:55.336Z,13.10
2018-09-16T21:24:23.999Z,13.00
2018-09-16T21:26:52.587Z,12.80
2018-09-16T21:29:21.186Z,12.80
2018-09-16T21:31:49.746Z,12.70
2018-09-16T21:34:18.286Z,12.50
2018-09-16T21:36:46.867Z,12.70
2018-09-16T21:39:15.396Z,12.80
2018-09-16T21:41:44.267Z,12.90
2018-09-16T21:44:12.851Z,12.80
2018-09-16T21:46:41.474Z,12.80
2018-09-16T21:49:10.027Z,12.70
2018-09-16T21:51:38.645Z,12.40
2018-09-16T21:54:07.393Z,12.40
2018-09-16T21:56:35.954Z,12.60
2018-09-16T21:59:04.489Z,12.60
2018-09-16T22:01:33.008Z,12.40
2018-09-16T22:04:01.520Z,12.30
2018-09-16T22:06:30.083Z,12.10
2018-09-16T22:08:58.574Z,11.90
2018-09-16T22:11:27.098Z,12.00
2018-09-16T22:13:55.638Z,12.10
2018-09-16T22:16:24.183Z,12.10
2018-09-16T22:18:52.734Z,11.90
2018-09-16T22:21:21.343Z,12.20
2018-09-16T22:23:49.843Z,12.10
2018-09-16T22:26:18.375Z,12.10
2018-09-16T22:28:46.849Z,12.20
2018-09-16T22:31:15.374Z,12.30
2018-09-16T22:33:43.878Z,12.20
2018-09-16T22:36:12.398Z,12.00
2018-09-16T22:38:40.894Z,11.90
2018-09-16T22:41:09.415Z,11.80
2018-09-16T22:43:37.909Z,11.90
2018-09-16T22:46:06.455Z,12.00
2018-09-16T22:48:35.022Z,11.90
2018-09-16T22:51:03.620Z,11.80
2018-09-16T22:53:32.135Z,11.70
2018-09-16T22:56:00.642Z,11.60
2018-09-16T22:58:29.214Z,11.40
2018-09-16T23:00:57.779Z,11.00
2018-09-16T23:03:26.303Z,11.10
2018-09-16T23:05:54.847Z,11.00
2018-09-16T23:08:29.879Z,11.00
2018-09-16T23:10:58.402Z,11.20
2018-09-16T23:13:27.023Z,11.30
2018-09-16T23:15:55.570Z,11.10
2018-09-16T23:18:24.132Z,11.10
2018-09-16T23:20:52.662Z,11.10
2018-09-16T23:23:21.254Z,11.10
2018-09-16T23:25:49.859Z,11.10
2018-09-16T23:28:18.401Z,10.80
2018-09-16T23:30:46.953Z,10.90
2018-09-16T23:33:15.647Z,11.00
2018-09-16T23:35:44.202Z,11.00
2018-09-16T23:38:12.851Z,11.00
2018-09-16T23:40:41.403Z,10.80
2018-09-16T23:43:09.960Z,10.60
2018-09-16T23:45:38.511Z,10.50
2018-09-16T23:48:07.076Z,10.30
2018-09-16T23:50:35.666Z,10.30
2018-09-16T23:53:04.257Z,10.40
2018-09-16T23:55:32.778Z,10.40
2018-09-16T23:58:01.295Z,10.60
